sensor_id;sensor_type;location;lat;lon;timestamp;P1;durP1;ratioP1;P2;durP2;ratioP2
30080;SDS011;16902;50.816;12.828;2023-04-16T00:00:03;18.98;;;15.73;;
30080;SDS011;16902;50.816;12.828;2023-04-16T00:05:11;19.33;;;16.02;;
30080;SDS011;16902;50.816;12.828;2023-04-16T00:10:13;19.05;;;16.02;;
30080;SDS011;16902;50.816;12.828;2023-04-16T00:15:16;18.00;;;16.08;;
30080;SDS011;16902;50.816;12.828;2023-04-16T00:20:18;21.00;;;16.75;;
30080;SDS011;16902;50.816;12.828;2023-04-16T00:25:20;23.42;;;17.83;;
30080;SDS011;16902;50.816;12.828;2023-04-16T00:30:22;22.63;;;16.98;;
30080;SDS011;16902;50.816;12.828;2023-04-16T00:35:24;20.05;;;16.20;;
30080;SDS011;16902;50.816;12.828;2023-04-16T00:40:26;22.95;;;17.15;;
30080;SDS011;16902;50.816;12.828;2023-04-16T00:45:29;23.73;;;18.27;;
30080;SDS011;16902;50.816;12.828;2023-04-16T00:50:32;23.52;;;17.80;;
30080;SDS011;16902;50.816;12.828;2023-04-16T00:55:34;25.33;;;18.88;;
30080;SDS011;16902;50.816;12.828;2023-04-16T01:00:37;21.42;;;17.13;;
30080;SDS011;16902;50.816;12.828;2023-04-16T01:05:38;29.45;;;21.77;;
30080;SDS011;16902;50.816;12.828;2023-04-16T01:10:41;30.08;;;20.88;;
30080;SDS011;16902;50.816;12.828;2023-04-16T01:15:43;30.75;;;20.90;;
30080;SDS011;16902;50.816;12.828;2023-04-16T01:20:45;29.70;;;20.98;;
30080;SDS011;16902;50.816;12.828;2023-04-16T01:25:48;35.67;;;21.85;;
30080;SDS011;16902;50.816;12.828;2023-04-16T01:30:50;31.83;;;21.92;;
30080;SDS011;16902;50.816;12.828;2023-04-16T01:36:12;36.10;;;23.50;;
30080;SDS011;16902;50.816;12.828;2023-04-16T01:41:14;35.53;;;24.48;;
30080;SDS011;16902;50.816;12.828;2023-04-16T01:46:20;30.38;;;20.83;;
30080;SDS011;16902;50.816;12.828;2023-04-16T01:51:27;38.03;;;23.95;;
30080;SDS011;16902;50.816;12.828;2023-04-16T01:56:29;33.67;;;21.17;;
30080;SDS011;16902;50.816;12.828;2023-04-16T02:01:31;32.72;;;21.77;;
30080;SDS011;16902;50.816;12.828;2023-04-16T02:06:33;35.47;;;23.05;;
30080;SDS011;16902;50.816;12.828;2023-04-16T02:11:35;34.75;;;21.45;;
30080;SDS011;16902;50.816;12.828;2023-04-16T02:16:37;33.58;;;21.75;;
30080;SDS011;16902;50.816;12.828;2023-04-16T02:21:52;31.42;;;21.17;;
30080;SDS011;16902;50.816;12.828;2023-04-16T02:26:55;30.45;;;19.80;;
30080;SDS011;16902;50.816;12.828;2023-04-16T02:31:57;31.80;;;22.08;;
30080;SDS011;16902;50.816;12.828;2023-04-16T02:37:01;32.95;;;22.20;;
30080;SDS011;16902;50.816;12.828;2023-04-16T02:42:03;31.50;;;21.23;;
30080;SDS011;16902;50.816;12.828;2023-04-16T02:47:05;27.98;;;20.30;;
30080;SDS011;16902;50.816;12.828;2023-04-16T02:52:07;35.45;;;21.30;;
30080;SDS011;16902;50.816;12.828;2023-04-16T02:57:08;28.10;;;19.98;;
30080;SDS011;16902;50.816;12.828;2023-04-16T03:02:10;27.00;;;19.75;;
30080;SDS011;16902;50.816;12.828;2023-04-16T03:07:12;30.05;;;21.00;;
30080;SDS011;16902;50.816;12.828;2023-04-16T03:12:14;33.42;;;21.48;;
30080;SDS011;16902;50.816;12.828;2023-04-16T03:17:16;29.42;;;19.95;;
30080;SDS011;16902;50.816;12.828;2023-04-16T03:22:18;26.58;;;18.98;;
30080;SDS011;16902;50.816;12.828;2023-04-16T03:27:20;27.00;;;19.23;;
30080;SDS011;16902;50.816;12.828;2023-04-16T03:32:22;31.27;;;20.33;;
30080;SDS011;16902;50.816;12.828;2023-04-16T03:37:24;35.47;;;20.45;;
30080;SDS011;16902;50.816;12.828;2023-04-16T03:42:26;36.70;;;20.73;;
30080;SDS011;16902;50.816;12.828;2023-04-16T03:47:30;28.15;;;19.45;;
30080;SDS011;16902;50.816;12.828;2023-04-16T03:52:35;26.50;;;18.48;;
30080;SDS011;16902;50.816;12.828;2023-04-16T03:57:37;27.80;;;17.73;;
30080;SDS011;16902;50.816;12.828;2023-04-16T04:02:44;32.80;;;20.48;;
30080;SDS011;16902;50.816;12.828;2023-04-16T04:07:52;30.40;;;20.27;;
30080;SDS011;16902;50.816;12.828;2023-04-16T04:12:54;30.20;;;19.42;;
30080;SDS011;16902;50.816;12.828;2023-04-16T04:17:56;31.58;;;19.40;;
30080;SDS011;16902;50.816;12.828;2023-04-16T04:22:58;31.83;;;20.13;;
30080;SDS011;16902;50.816;12.828;2023-04-16T04:28:01;34.92;;;21.52;;
30080;SDS011;16902;50.816;12.828;2023-04-16T04:33:02;40.78;;;24.48;;
30080;SDS011;16902;50.816;12.828;2023-04-16T04:38:05;46.58;;;26.92;;
30080;SDS011;16902;50.816;12.828;2023-04-16T04:43:07;39.75;;;23.70;;
30080;SDS011;16902;50.816;12.828;2023-04-16T04:48:09;37.40;;;22.55;;
30080;SDS011;16902;50.816;12.828;2023-04-16T04:53:11;35.58;;;22.70;;
30080;SDS011;16902;50.816;12.828;2023-04-16T04:58:16;34.88;;;22.50;;
30080;SDS011;16902;50.816;12.828;2023-04-16T05:03:18;41.13;;;23.67;;
30080;SDS011;16902;50.816;12.828;2023-04-16T05:08:21;47.22;;;26.85;;
30080;SDS011;16902;50.816;12.828;2023-04-16T05:13:23;45.50;;;26.50;;
30080;SDS011;16902;50.816;12.828;2023-04-16T05:18:25;41.28;;;24.20;;
30080;SDS011;16902;50.816;12.828;2023-04-16T05:23:27;38.88;;;24.70;;
30080;SDS011;16902;50.816;12.828;2023-04-16T05:28:29;38.72;;;25.15;;
30080;SDS011;16902;50.816;12.828;2023-04-16T05:33:31;34.95;;;23.25;;
30080;SDS011;16902;50.816;12.828;2023-04-16T05:38:33;37.47;;;24.15;;
30080;SDS011;16902;50.816;12.828;2023-04-16T05:43:34;35.92;;;24.70;;
30080;SDS011;16902;50.816;12.828;2023-04-16T05:48:36;30.75;;;22.17;;
30080;SDS011;16902;50.816;12.828;2023-04-16T05:53:37;32.45;;;22.48;;
30080;SDS011;16902;50.816;12.828;2023-04-16T05:58:39;30.30;;;21.52;;
30080;SDS011;16902;50.816;12.828;2023-04-16T06:03:41;32.58;;;21.88;;
30080;SDS011;16902;50.816;12.828;2023-04-16T06:08:43;29.02;;;21.83;;
30080;SDS011;16902;50.816;12.828;2023-04-16T06:13:44;31.02;;;22.58;;
30080;SDS011;16902;50.816;12.828;2023-04-16T06:18:46;33.92;;;23.73;;
30080;SDS011;16902;50.816;12.828;2023-04-16T06:23:48;29.58;;;21.30;;
30080;SDS011;16902;50.816;12.828;2023-04-16T06:28:49;32.70;;;22.33;;
30080;SDS011;16902;50.816;12.828;2023-04-16T06:33:51;35.70;;;22.30;;
30080;SDS011;16902;50.816;12.828;2023-04-16T06:38:52;26.45;;;20.92;;
30080;SDS011;16902;50.816;12.828;2023-04-16T06:43:54;27.65;;;20.73;;
30080;SDS011;16902;50.816;12.828;2023-04-16T06:48:56;28.63;;;21.90;;
30080;SDS011;16902;50.816;12.828;2023-04-16T06:53:57;26.08;;;21.92;;
30080;SDS011;16902;50.816;12.828;2023-04-16T06:58:59;26.48;;;21.55;;
30080;SDS011;16902;50.816;12.828;2023-04-16T07:04:01;25.73;;;21.20;;
30080;SDS011;16902;50.816;12.828;2023-04-16T07:09:04;27.45;;;20.88;;
30080;SDS011;16902;50.816;12.828;2023-04-16T07:14:05;31.85;;;22.48;;
30080;SDS011;16902;50.816;12.828;2023-04-16T07:19:07;26.70;;;21.55;;
30080;SDS011;16902;50.816;12.828;2023-04-16T07:24:10;27.58;;;22.45;;
30080;SDS011;16902;50.816;12.828;2023-04-16T07:29:12;28.98;;;20.80;;
30080;SDS011;16902;50.816;12.828;2023-04-16T07:34:13;23.92;;;20.15;;
30080;SDS011;16902;50.816;12.828;2023-04-16T07:39:15;26.52;;;22.63;;
30080;SDS011;16902;50.816;12.828;2023-04-16T07:44:17;23.38;;;20.73;;
30080;SDS011;16902;50.816;12.828;2023-04-16T07:49:19;26.13;;;22.35;;
30080;SDS011;16902;50.816;12.828;2023-04-16T07:54:20;25.88;;;21.23;;
30080;SDS011;16902;50.816;12.828;2023-04-16T07:59:24;25.77;;;21.65;;
30080;SDS011;16902;50.816;12.828;2023-04-16T08:04:26;22.75;;;20.35;;
30080;SDS011;16902;50.816;12.828;2023-04-16T08:09:29;23.20;;;20.17;;
30080;SDS011;16902;50.816;12.828;2023-04-16T08:14:30;23.92;;;21.38;;
30080;SDS011;16902;50.816;12.828;2023-04-16T08:19:32;22.45;;;20.15;;
30080;SDS011;16902;50.816;12.828;2023-04-16T08:24:33;23.85;;;21.55;;
30080;SDS011;16902;50.816;12.828;2023-04-16T08:29:35;22.80;;;20.38;;
30080;SDS011;16902;50.816;12.828;2023-04-16T08:34:37;24.02;;;21.63;;
30080;SDS011;16902;50.816;12.828;2023-04-16T08:39:38;21.83;;;19.73;;
30080;SDS011;16902;50.816;12.828;2023-04-16T08:44:42;23.20;;;20.90;;
30080;SDS011;16902;50.816;12.828;2023-04-16T08:49:49;23.67;;;21.58;;
30080;SDS011;16902;50.816;12.828;2023-04-16T09:00:14;25.85;;;23.42;;
30080;SDS011;16902;50.816;12.828;2023-04-16T09:05:17;23.85;;;21.75;;
30080;SDS011;16902;50.816;12.828;2023-04-16T09:10:21;22.73;;;20.83;;
30080;SDS011;16902;50.816;12.828;2023-04-16T09:15:23;22.27;;;20.38;;
30080;SDS011;16902;50.816;12.828;2023-04-16T09:20:26;22.55;;;20.75;;
30080;SDS011;16902;50.816;12.828;2023-04-16T09:25:27;22.58;;;20.77;;
30080;SDS011;16902;50.816;12.828;2023-04-16T09:30:34;22.80;;;20.95;;
30080;SDS011;16902;50.816;12.828;2023-04-16T09:35:44;22.85;;;20.92;;
30080;SDS011;16902;50.816;12.828;2023-04-16T09:41:05;22.85;;;20.88;;
30080;SDS011;16902;50.816;12.828;2023-04-16T09:46:09;21.50;;;19.77;;
30080;SDS011;16902;50.816;12.828;2023-04-16T09:51:13;21.27;;;19.67;;
30080;SDS011;16902;50.816;12.828;2023-04-16T09:56:14;21.65;;;19.95;;
30080;SDS011;16902;50.816;12.828;2023-04-16T10:01:16;21.48;;;19.73;;
30080;SDS011;16902;50.816;12.828;2023-04-16T10:06:19;23.20;;;21.30;;
30080;SDS011;16902;50.816;12.828;2023-04-16T10:11:22;22.10;;;20.50;;
30080;SDS011;16902;50.816;12.828;2023-04-16T10:16:24;21.27;;;19.83;;
30080;SDS011;16902;50.816;12.828;2023-04-16T10:21:27;22.17;;;20.52;;
30080;SDS011;16902;50.816;12.828;2023-04-16T10:26:34;21.65;;;20.13;;
30080;SDS011;16902;50.816;12.828;2023-04-16T10:31:36;21.67;;;20.10;;
30080;SDS011;16902;50.816;12.828;2023-04-16T10:36:40;22.35;;;20.65;;
30080;SDS011;16902;50.816;12.828;2023-04-16T10:41:42;21.67;;;20.17;;
30080;SDS011;16902;50.816;12.828;2023-04-16T10:46:45;20.80;;;19.40;;
30080;SDS011;16902;50.816;12.828;2023-04-16T10:51:52;19.88;;;18.67;;
30080;SDS011;16902;50.816;12.828;2023-04-16T10:57:03;22.50;;;21.00;;
30080;SDS011;16902;50.816;12.828;2023-04-16T11:02:12;22.30;;;20.70;;
30080;SDS011;16902;50.816;12.828;2023-04-16T11:07:17;22.90;;;21.40;;
30080;SDS011;16902;50.816;12.828;2023-04-16T11:12:21;23.15;;;21.48;;
30080;SDS011;16902;50.816;12.828;2023-04-16T11:17:30;21.05;;;19.35;;
30080;SDS011;16902;50.816;12.828;2023-04-16T11:22:43;21.10;;;19.70;;
30080;SDS011;16902;50.816;12.828;2023-04-16T11:27:48;21.45;;;19.85;;
30080;SDS011;16902;50.816;12.828;2023-04-16T11:32:50;20.58;;;19.27;;
30080;SDS011;16902;50.816;12.828;2023-04-16T11:37:56;21.63;;;20.13;;
30080;SDS011;16902;50.816;12.828;2023-04-16T11:43:14;20.63;;;19.23;;
30080;SDS011;16902;50.816;12.828;2023-04-16T11:48:17;22.30;;;20.80;;
30080;SDS011;16902;50.816;12.828;2023-04-16T11:53:18;21.23;;;19.90;;
30080;SDS011;16902;50.816;12.828;2023-04-16T11:58:20;22.15;;;20.65;;
30080;SDS011;16902;50.816;12.828;2023-04-16T12:03:36;22.15;;;20.65;;
30080;SDS011;16902;50.816;12.828;2023-04-16T12:08:44;22.80;;;21.20;;
30080;SDS011;16902;50.816;12.828;2023-04-16T12:19:09;22.45;;;20.83;;
30080;SDS011;16902;50.816;12.828;2023-04-16T12:24:13;22.10;;;20.70;;
30080;SDS011;16902;50.816;12.828;2023-04-16T12:29:20;22.00;;;20.70;;
30080;SDS011;16902;50.816;12.828;2023-04-16T12:34:24;22.13;;;20.67;;
30080;SDS011;16902;50.816;12.828;2023-04-16T12:39:45;21.45;;;20.05;;
30080;SDS011;16902;50.816;12.828;2023-04-16T12:44:48;20.92;;;19.52;;
30080;SDS011;16902;50.816;12.828;2023-04-16T12:49:50;21.05;;;19.80;;
30080;SDS011;16902;50.816;12.828;2023-04-16T12:54:51;22.48;;;21.13;;
30080;SDS011;16902;50.816;12.828;2023-04-16T12:59:57;21.25;;;19.95;;
30080;SDS011;16902;50.816;12.828;2023-04-16T13:04:59;22.55;;;21.10;;
30080;SDS011;16902;50.816;12.828;2023-04-16T13:10:00;22.35;;;20.95;;
30080;SDS011;16902;50.816;12.828;2023-04-16T13:15:03;20.90;;;19.75;;
30080;SDS011;16902;50.816;12.828;2023-04-16T13:20:05;21.70;;;20.48;;
30080;SDS011;16902;50.816;12.828;2023-04-16T13:25:08;20.70;;;19.58;;
30080;SDS011;16902;50.816;12.828;2023-04-16T13:30:10;21.27;;;19.95;;
30080;SDS011;16902;50.816;12.828;2023-04-16T13:35:12;21.55;;;20.25;;
30080;SDS011;16902;50.816;12.828;2023-04-16T13:40:13;20.30;;;19.20;;
30080;SDS011;16902;50.816;12.828;2023-04-16T13:45:15;20.88;;;19.45;;
30080;SDS011;16902;50.816;12.828;2023-04-16T13:50:17;21.23;;;20.02;;
30080;SDS011;16902;50.816;12.828;2023-04-16T13:55:19;19.85;;;18.75;;
30080;SDS011;16902;50.816;12.828;2023-04-16T14:00:20;20.25;;;19.25;;
30080;SDS011;16902;50.816;12.828;2023-04-16T14:05:22;19.63;;;18.55;;
30080;SDS011;16902;50.816;12.828;2023-04-16T14:10:27;20.30;;;19.10;;
30080;SDS011;16902;50.816;12.828;2023-04-16T14:15:29;19.77;;;18.67;;
30080;SDS011;16902;50.816;12.828;2023-04-16T14:20:31;19.75;;;18.65;;
30080;SDS011;16902;50.816;12.828;2023-04-16T14:25:33;20.20;;;19.00;;
30080;SDS011;16902;50.816;12.828;2023-04-16T14:30:35;19.23;;;18.13;;
30080;SDS011;16902;50.816;12.828;2023-04-16T14:35:37;19.05;;;18.05;;
30080;SDS011;16902;50.816;12.828;2023-04-16T14:40:38;18.38;;;17.38;;
30080;SDS011;16902;50.816;12.828;2023-04-16T14:45:40;17.60;;;16.70;;
30080;SDS011;16902;50.816;12.828;2023-04-16T14:50:42;18.13;;;17.15;;
30080;SDS011;16902;50.816;12.828;2023-04-16T14:55:44;19.02;;;17.90;;
30080;SDS011;16902;50.816;12.828;2023-04-16T15:00:48;19.27;;;18.15;;
30080;SDS011;16902;50.816;12.828;2023-04-16T15:05:50;17.98;;;16.98;;
30080;SDS011;16902;50.816;12.828;2023-04-16T15:10:56;17.33;;;16.42;;
30080;SDS011;16902;50.816;12.828;2023-04-16T15:16:01;17.80;;;16.90;;
30080;SDS011;16902;50.816;12.828;2023-04-16T15:21:03;16.80;;;15.80;;
30080;SDS011;16902;50.816;12.828;2023-04-16T15:26:04;16.65;;;15.75;;
30080;SDS011;16902;50.816;12.828;2023-04-16T15:31:06;16.23;;;15.43;;
30080;SDS011;16902;50.816;12.828;2023-04-16T15:36:08;15.35;;;14.65;;
30080;SDS011;16902;50.816;12.828;2023-04-16T15:41:11;15.57;;;14.88;;
30080;SDS011;16902;50.816;12.828;2023-04-16T15:46:13;16.15;;;15.35;;
30080;SDS011;16902;50.816;12.828;2023-04-16T15:51:15;16.00;;;15.20;;
30080;SDS011;16902;50.816;12.828;2023-04-16T15:56:18;16.40;;;15.50;;
30080;SDS011;16902;50.816;12.828;2023-04-16T16:01:20;15.90;;;15.10;;
30080;SDS011;16902;50.816;12.828;2023-04-16T16:06:22;14.70;;;14.00;;
30080;SDS011;16902;50.816;12.828;2023-04-16T16:11:24;16.05;;;15.00;;
30080;SDS011;16902;50.816;12.828;2023-04-16T16:16:26;15.07;;;14.27;;
30080;SDS011;16902;50.816;12.828;2023-04-16T16:21:29;15.00;;;14.10;;
30080;SDS011;16902;50.816;12.828;2023-04-16T16:26:33;14.98;;;14.07;;
30080;SDS011;16902;50.816;12.828;2023-04-16T16:31:35;14.68;;;13.88;;
30080;SDS011;16902;50.816;12.828;2023-04-16T16:36:36;13.43;;;12.65;;
30080;SDS011;16902;50.816;12.828;2023-04-16T16:41:38;13.35;;;12.52;;
30080;SDS011;16902;50.816;12.828;2023-04-16T16:46:42;13.10;;;12.30;;
30080;SDS011;16902;50.816;12.828;2023-04-16T16:51:44;11.52;;;10.82;;
30080;SDS011;16902;50.816;12.828;2023-04-16T16:56:47;12.38;;;11.57;;
30080;SDS011;16902;50.816;12.828;2023-04-16T17:07:18;12.27;;;11.38;;
30080;SDS011;16902;50.816;12.828;2023-04-16T17:12:20;12.43;;;11.43;;
30080;SDS011;16902;50.816;12.828;2023-04-16T17:17:25;12.60;;;11.70;;
30080;SDS011;16902;50.816;12.828;2023-04-16T17:22:27;13.93;;;12.82;;
30080;SDS011;16902;50.816;12.828;2023-04-16T17:27:29;12.20;;;11.20;;
30080;SDS011;16902;50.816;12.828;2023-04-16T17:32:34;12.73;;;11.82;;
30080;SDS011;16902;50.816;12.828;2023-04-16T17:37:36;11.85;;;11.05;;
30080;SDS011;16902;50.816;12.828;2023-04-16T17:42:38;12.85;;;11.65;;
30080;SDS011;16902;50.816;12.828;2023-04-16T17:47:40;11.65;;;10.55;;
30080;SDS011;16902;50.816;12.828;2023-04-16T17:52:43;11.48;;;10.57;;
30080;SDS011;16902;50.816;12.828;2023-04-16T17:57:45;11.23;;;10.25;;
30080;SDS011;16902;50.816;12.828;2023-04-16T18:02:46;11.88;;;10.82;;
30080;SDS011;16902;50.816;12.828;2023-04-16T18:07:49;9.90;;;9.00;;
30080;SDS011;16902;50.816;12.828;2023-04-16T18:12:51;10.32;;;9.32;;
30080;SDS011;16902;50.816;12.828;2023-04-16T18:17:53;11.68;;;10.48;;
30080;SDS011;16902;50.816;12.828;2023-04-16T18:22:55;12.02;;;10.80;;
30080;SDS011;16902;50.816;12.828;2023-04-16T18:27:57;13.75;;;11.50;;
30080;SDS011;16902;50.816;12.828;2023-04-16T18:32:59;14.23;;;12.73;;
30080;SDS011;16902;50.816;12.828;2023-04-16T18:38:21;13.77;;;12.32;;
30080;SDS011;16902;50.816;12.828;2023-04-16T18:43:23;17.50;;;13.95;;
30080;SDS011;16902;50.816;12.828;2023-04-16T18:48:25;17.02;;;13.65;;
30080;SDS011;16902;50.816;12.828;2023-04-16T18:53:28;15.40;;;13.18;;
30080;SDS011;16902;50.816;12.828;2023-04-16T18:58:30;17.20;;;13.70;;
30080;SDS011;16902;50.816;12.828;2023-04-16T19:03:31;17.63;;;13.63;;
30080;SDS011;16902;50.816;12.828;2023-04-16T19:08:34;15.38;;;13.07;;
30080;SDS011;16902;50.816;12.828;2023-04-16T19:13:36;19.55;;;15.00;;
30080;SDS011;16902;50.816;12.828;2023-04-16T19:18:39;19.35;;;14.25;;
30080;SDS011;16902;50.816;12.828;2023-04-16T19:23:40;18.90;;;14.57;;
30080;SDS011;16902;50.816;12.828;2023-04-16T19:28:43;18.55;;;14.50;;
30080;SDS011;16902;50.816;12.828;2023-04-16T19:33:46;18.73;;;14.15;;
30080;SDS011;16902;50.816;12.828;2023-04-16T19:38:48;18.50;;;14.38;;
30080;SDS011;16902;50.816;12.828;2023-04-16T19:43:50;16.88;;;14.07;;
30080;SDS011;16902;50.816;12.828;2023-04-16T19:48:55;21.50;;;15.52;;
30080;SDS011;16902;50.816;12.828;2023-04-16T19:53:57;20.58;;;16.40;;
30080;SDS011;16902;50.816;12.828;2023-04-16T19:58:59;19.40;;;14.60;;
30080;SDS011;16902;50.816;12.828;2023-04-16T20:04:02;18.85;;;15.52;;
30080;SDS011;16902;50.816;12.828;2023-04-16T20:09:04;19.35;;;15.18;;
30080;SDS011;16902;50.816;12.828;2023-04-16T20:14:06;18.70;;;15.10;;
30080;SDS011;16902;50.816;12.828;2023-04-16T20:19:08;18.30;;;15.35;;
30080;SDS011;16902;50.816;12.828;2023-04-16T20:24:10;19.85;;;15.30;;
30080;SDS011;16902;50.816;12.828;2023-04-16T20:29:12;18.70;;;15.23;;
30080;SDS011;16902;50.816;12.828;2023-04-16T20:34:15;18.70;;;15.20;;
30080;SDS011;16902;50.816;12.828;2023-04-16T20:39:17;16.90;;;13.75;;
30080;SDS011;16902;50.816;12.828;2023-04-16T20:44:22;21.58;;;15.93;;
30080;SDS011;16902;50.816;12.828;2023-04-16T20:49:26;19.90;;;15.80;;
30080;SDS011;16902;50.816;12.828;2023-04-16T20:54:28;19.98;;;15.25;;
30080;SDS011;16902;50.816;12.828;2023-04-16T20:59:31;23.33;;;15.52;;
30080;SDS011;16902;50.816;12.828;2023-04-16T21:04:33;21.25;;;14.27;;
30080;SDS011;16902;50.816;12.828;2023-04-16T21:09:35;24.70;;;19.40;;
30080;SDS011;16902;50.816;12.828;2023-04-16T21:14:37;22.00;;;15.30;;
30080;SDS011;16902;50.816;12.828;2023-04-16T21:19:39;18.02;;;13.57;;
30080;SDS011;16902;50.816;12.828;2023-04-16T21:24:41;18.90;;;13.90;;
30080;SDS011;16902;50.816;12.828;2023-04-16T21:29:43;20.35;;;14.60;;
30080;SDS011;16902;50.816;12.828;2023-04-16T21:34:45;19.80;;;14.45;;
30080;SDS011;16902;50.816;12.828;2023-04-16T21:39:46;20.02;;;15.50;;
30080;SDS011;16902;50.816;12.828;2023-04-16T21:44:48;20.23;;;14.40;;
30080;SDS011;16902;50.816;12.828;2023-04-16T21:49:50;20.60;;;14.52;;
30080;SDS011;16902;50.816;12.828;2023-04-16T21:54:52;19.17;;;14.13;;
30080;SDS011;16902;50.816;12.828;2023-04-16T21:59:54;23.17;;;15.25;;
30080;SDS011;16902;50.816;12.828;2023-04-16T22:04:56;23.38;;;16.27;;
30080;SDS011;16902;50.816;12.828;2023-04-16T22:09:57;26.05;;;17.92;;
30080;SDS011;16902;50.816;12.828;2023-04-16T22:14:59;28.83;;;18.35;;
30080;SDS011;16902;50.816;12.828;2023-04-16T22:20:03;29.38;;;17.95;;
30080;SDS011;16902;50.816;12.828;2023-04-16T22:25:07;26.95;;;18.08;;
30080;SDS011;16902;50.816;12.828;2023-04-16T22:30:11;28.63;;;17.23;;
30080;SDS011;16902;50.816;12.828;2023-04-16T22:35:13;33.08;;;19.70;;
30080;SDS011;16902;50.816;12.828;2023-04-16T22:40:15;30.33;;;18.35;;
30080;SDS011;16902;50.816;12.828;2023-04-16T22:45:18;29.20;;;18.40;;
30080;SDS011;16902;50.816;12.828;2023-04-16T22:50:20;27.90;;;17.48;;
30080;SDS011;16902;50.816;12.828;2023-04-16T22:55:23;27.40;;;17.10;;
30080;SDS011;16902;50.816;12.828;2023-04-16T23:00:25;28.77;;;18.48;;
30080;SDS011;16902;50.816;12.828;2023-04-16T23:05:27;24.77;;;16.80;;
30080;SDS011;16902;50.816;12.828;2023-04-16T23:10:30;22.77;;;15.50;;
30080;SDS011;16902;50.816;12.828;2023-04-16T23:15:32;21.75;;;16.25;;
30080;SDS011;16902;50.816;12.828;2023-04-16T23:20:34;23.15;;;16.25;;
30080;SDS011;16902;50.816;12.828;2023-04-16T23:25:36;23.70;;;16.35;;
30080;SDS011;16902;50.816;12.828;2023-04-16T23:30:41;17.92;;;14.32;;
30080;SDS011;16902;50.816;12.828;2023-04-16T23:35:43;21.85;;;16.00;;
30080;SDS011;16902;50.816;12.828;2023-04-16T23:40:46;22.85;;;14.57;;
30080;SDS011;16902;50.816;12.828;2023-04-16T23:45:48;19.98;;;15.23;;
30080;SDS011;16902;50.816;12.828;2023-04-16T23:50:50;22.73;;;15.57;;
30080;SDS011;16902;50.816;12.828;2023-04-16T23:55:54;20.90;;;15.68;;
